sensor_id;sensor_type;location;lat;lon;timestamp;P1;durP1;ratioP1;P2;durP2;ratioP2
63688;SDS011;54895;40.928;14.480;2022-10-14T00:02:10;4.43;;;3.17;;
63688;SDS011;54895;40.928;14.480;2022-10-14T00:04:53;4.43;;;3.53;;
63688;SDS011;54895;40.928;14.480;2022-10-14T00:07:34;3.53;;;2.97;;
63688;SDS011;54895;40.928;14.480;2022-10-14T00:10:16;5.15;;;3.63;;
63688;SDS011;54895;40.928;14.480;2022-10-14T00:12:57;4.93;;;3.83;;
63688;SDS011;54895;40.928;14.480;2022-10-14T00:15:39;5.32;;;2.33;;
63688;SDS011;54895;40.928;14.480;2022-10-14T00:18:21;4.00;;;3.10;;
63688;SDS011;54895;40.928;14.480;2022-10-14T00:21:03;5.65;;;3.92;;
63688;SDS011;54895;40.928;14.480;2022-10-14T00:23:45;4.35;;;2.95;;
63688;SDS011;54895;40.928;14.480;2022-10-14T00:26:28;5.03;;;4.03;;
63688;SDS011;54895;40.928;14.480;2022-10-14T00:29:14;5.15;;;4.13;;
63688;SDS011;54895;40.928;14.480;2022-10-14T00:31:59;5.00;;;3.80;;
63688;SDS011;54895;40.928;14.480;2022-10-14T00:34:39;5.03;;;4.07;;
63688;SDS011;54895;40.928;14.480;2022-10-14T00:37:21;4.60;;;3.92;;
63688;SDS011;54895;40.928;14.480;2022-10-14T00:40:04;4.78;;;4.03;;
63688;SDS011;54895;40.928;14.480;2022-10-14T00:42:46;4.40;;;3.58;;
63688;SDS011;54895;40.928;14.480;2022-10-14T00:45:27;4.07;;;3.25;;
63688;SDS011;54895;40.928;14.480;2022-10-14T00:48:08;4.78;;;3.33;;
63688;SDS011;54895;40.928;14.480;2022-10-14T00:50:52;5.15;;;3.80;;
63688;SDS011;54895;40.928;14.480;2022-10-14T00:53:37;4.82;;;3.20;;
63688;SDS011;54895;40.928;14.480;2022-10-14T00:56:24;5.65;;;4.28;;
63688;SDS011;54895;40.928;14.480;2022-10-14T00:59:07;4.70;;;2.95;;
63688;SDS011;54895;40.928;14.480;2022-10-14T01:01:48;5.72;;;4.15;;
63688;SDS011;54895;40.928;14.480;2022-10-14T01:04:30;5.78;;;4.53;;
63688;SDS011;54895;40.928;14.480;2022-10-14T01:13:16;5.80;;;3.28;;
63688;SDS011;54895;40.928;14.480;2022-10-14T01:19:25;5.38;;;4.03;;
63688;SDS011;54895;40.928;14.480;2022-10-14T01:22:34;5.70;;;3.78;;
63688;SDS011;54895;40.928;14.480;2022-10-14T01:26:01;4.28;;;2.67;;
63688;SDS011;54895;40.928;14.480;2022-10-14T01:28:53;2.95;;;2.00;;
63688;SDS011;54895;40.928;14.480;2022-10-14T01:31:49;6.07;;;3.90;;
63688;SDS011;54895;40.928;14.480;2022-10-14T01:34:41;5.07;;;3.88;;
63688;SDS011;54895;40.928;14.480;2022-10-14T01:37:28;5.53;;;4.68;;
63688;SDS011;54895;40.928;14.480;2022-10-14T01:40:16;6.03;;;4.25;;
63688;SDS011;54895;40.928;14.480;2022-10-14T01:43:20;5.53;;;4.25;;
63688;SDS011;54895;40.928;14.480;2022-10-14T01:46:05;4.90;;;4.00;;
63688;SDS011;54895;40.928;14.480;2022-10-14T01:48:48;7.55;;;4.97;;
63688;SDS011;54895;40.928;14.480;2022-10-14T01:51:38;8.70;;;5.53;;
63688;SDS011;54895;40.928;14.480;2022-10-14T01:54:29;7.20;;;4.45;;
63688;SDS011;54895;40.928;14.480;2022-10-14T01:57:28;7.45;;;5.20;;
63688;SDS011;54895;40.928;14.480;2022-10-14T02:00:13;6.38;;;5.03;;
63688;SDS011;54895;40.928;14.480;2022-10-14T02:02:53;5.93;;;4.72;;
63688;SDS011;54895;40.928;14.480;2022-10-14T02:05:40;5.60;;;4.40;;
63688;SDS011;54895;40.928;14.480;2022-10-14T02:08:30;6.63;;;5.05;;
63688;SDS011;54895;40.928;14.480;2022-10-14T02:11:22;6.60;;;4.68;;
63688;SDS011;54895;40.928;14.480;2022-10-14T02:19:51;6.18;;;4.60;;
63688;SDS011;54895;40.928;14.480;2022-10-14T02:22:51;8.23;;;4.97;;
63688;SDS011;54895;40.928;14.480;2022-10-14T02:25:38;7.00;;;4.82;;
63688;SDS011;54895;40.928;14.480;2022-10-14T02:28:24;6.35;;;5.03;;
63688;SDS011;54895;40.928;14.480;2022-10-14T02:31:10;6.07;;;4.60;;
63688;SDS011;54895;40.928;14.480;2022-10-14T02:33:59;6.20;;;4.88;;
63688;SDS011;54895;40.928;14.480;2022-10-14T02:36:42;7.07;;;5.00;;
63688;SDS011;54895;40.928;14.480;2022-10-14T02:39:29;6.97;;;4.50;;
63688;SDS011;54895;40.928;14.480;2022-10-14T02:42:14;6.65;;;5.57;;
63688;SDS011;54895;40.928;14.480;2022-10-14T02:44:57;8.75;;;6.35;;
63688;SDS011;54895;40.928;14.480;2022-10-14T02:47:39;8.05;;;5.40;;
63688;SDS011;54895;40.928;14.480;2022-10-14T02:50:21;8.60;;;5.82;;
63688;SDS011;54895;40.928;14.480;2022-10-14T02:53:02;9.75;;;6.32;;
63688;SDS011;54895;40.928;14.480;2022-10-14T02:55:44;9.82;;;6.25;;
63688;SDS011;54895;40.928;14.480;2022-10-14T02:58:25;7.35;;;5.40;;
63688;SDS011;54895;40.928;14.480;2022-10-14T03:01:07;12.07;;;6.70;;
63688;SDS011;54895;40.928;14.480;2022-10-14T03:03:49;9.63;;;6.07;;
63688;SDS011;54895;40.928;14.480;2022-10-14T03:06:30;7.60;;;5.53;;
63688;SDS011;54895;40.928;14.480;2022-10-14T03:09:14;6.10;;;4.80;;
63688;SDS011;54895;40.928;14.480;2022-10-14T03:11:56;8.90;;;5.95;;
63688;SDS011;54895;40.928;14.480;2022-10-14T03:14:38;6.53;;;4.97;;
63688;SDS011;54895;40.928;14.480;2022-10-14T03:17:22;8.93;;;6.78;;
63688;SDS011;54895;40.928;14.480;2022-10-14T03:20:04;7.60;;;5.90;;
63688;SDS011;54895;40.928;14.480;2022-10-14T03:22:50;9.23;;;6.13;;
63688;SDS011;54895;40.928;14.480;2022-10-14T03:25:31;11.80;;;6.13;;
63688;SDS011;54895;40.928;14.480;2022-10-14T03:28:23;11.40;;;7.45;;
63688;SDS011;54895;40.928;14.480;2022-10-14T03:31:25;11.38;;;8.23;;
63688;SDS011;54895;40.928;14.480;2022-10-14T03:34:37;12.77;;;7.05;;
63688;SDS011;54895;40.928;14.480;2022-10-14T03:37:25;10.95;;;7.22;;
63688;SDS011;54895;40.928;14.480;2022-10-14T03:40:10;10.68;;;8.07;;
63688;SDS011;54895;40.928;14.480;2022-10-14T03:42:50;11.77;;;7.90;;
63688;SDS011;54895;40.928;14.480;2022-10-14T03:45:33;10.32;;;7.38;;
63688;SDS011;54895;40.928;14.480;2022-10-14T03:48:16;11.02;;;7.53;;
63688;SDS011;54895;40.928;14.480;2022-10-14T03:50:59;10.43;;;8.73;;
63688;SDS011;54895;40.928;14.480;2022-10-14T03:53:42;12.05;;;8.32;;
63688;SDS011;54895;40.928;14.480;2022-10-14T03:56:23;11.63;;;8.38;;
63688;SDS011;54895;40.928;14.480;2022-10-14T03:59:07;10.98;;;7.93;;
63688;SDS011;54895;40.928;14.480;2022-10-14T04:01:52;10.48;;;7.75;;
63688;SDS011;54895;40.928;14.480;2022-10-14T04:04:40;10.25;;;7.70;;
63688;SDS011;54895;40.928;14.480;2022-10-14T04:07:34;11.80;;;8.30;;
63688;SDS011;54895;40.928;14.480;2022-10-14T04:10:16;10.25;;;7.88;;
63688;SDS011;54895;40.928;14.480;2022-10-14T04:13:04;11.13;;;7.75;;
63688;SDS011;54895;40.928;14.480;2022-10-14T04:15:50;10.23;;;7.90;;
63688;SDS011;54895;40.928;14.480;2022-10-14T04:18:48;11.75;;;8.02;;
63688;SDS011;54895;40.928;14.480;2022-10-14T04:21:41;11.43;;;8.13;;
63688;SDS011;54895;40.928;14.480;2022-10-14T04:24:23;12.38;;;7.78;;
63688;SDS011;54895;40.928;14.480;2022-10-14T04:27:19;11.15;;;8.05;;
63688;SDS011;54895;40.928;14.480;2022-10-14T04:30:08;9.45;;;5.82;;
63688;SDS011;54895;40.928;14.480;2022-10-14T04:33:02;8.60;;;7.13;;
63688;SDS011;54895;40.928;14.480;2022-10-14T04:35:44;10.23;;;7.00;;
63688;SDS011;54895;40.928;14.480;2022-10-14T04:38:33;9.88;;;7.00;;
63688;SDS011;54895;40.928;14.480;2022-10-14T04:41:20;9.68;;;6.65;;
63688;SDS011;54895;40.928;14.480;2022-10-14T04:44:02;9.32;;;6.82;;
63688;SDS011;54895;40.928;14.480;2022-10-14T04:46:50;8.65;;;6.30;;
63688;SDS011;54895;40.928;14.480;2022-10-14T04:49:36;8.98;;;6.88;;
63688;SDS011;54895;40.928;14.480;2022-10-14T04:52:26;9.10;;;7.03;;
63688;SDS011;54895;40.928;14.480;2022-10-14T04:55:12;10.63;;;7.00;;
63688;SDS011;54895;40.928;14.480;2022-10-14T04:57:57;9.32;;;6.30;;
63688;SDS011;54895;40.928;14.480;2022-10-14T05:00:43;9.68;;;6.90;;
63688;SDS011;54895;40.928;14.480;2022-10-14T05:03:39;10.65;;;7.30;;
63688;SDS011;54895;40.928;14.480;2022-10-14T05:06:20;10.63;;;6.93;;
63688;SDS011;54895;40.928;14.480;2022-10-14T05:09:05;12.00;;;7.07;;
63688;SDS011;54895;40.928;14.480;2022-10-14T05:11:48;11.48;;;7.03;;
63688;SDS011;54895;40.928;14.480;2022-10-14T05:14:39;9.60;;;6.25;;
63688;SDS011;54895;40.928;14.480;2022-10-14T05:17:31;10.02;;;7.03;;
63688;SDS011;54895;40.928;14.480;2022-10-14T05:20:11;10.88;;;7.13;;
63688;SDS011;54895;40.928;14.480;2022-10-14T05:22:54;11.48;;;6.03;;
63688;SDS011;54895;40.928;14.480;2022-10-14T05:25:36;10.70;;;7.90;;
63688;SDS011;54895;40.928;14.480;2022-10-14T05:28:17;11.95;;;7.57;;
63688;SDS011;54895;40.928;14.480;2022-10-14T05:30:58;12.75;;;7.82;;
63688;SDS011;54895;40.928;14.480;2022-10-14T05:33:40;12.45;;;8.07;;
63688;SDS011;54895;40.928;14.480;2022-10-14T05:36:21;11.90;;;8.27;;
63688;SDS011;54895;40.928;14.480;2022-10-14T05:39:05;11.18;;;7.90;;
63688;SDS011;54895;40.928;14.480;2022-10-14T05:41:49;11.00;;;7.40;;
63688;SDS011;54895;40.928;14.480;2022-10-14T05:44:36;12.13;;;7.63;;
63688;SDS011;54895;40.928;14.480;2022-10-14T05:47:18;10.60;;;6.95;;
63688;SDS011;54895;40.928;14.480;2022-10-14T05:50:02;11.65;;;7.60;;
63688;SDS011;54895;40.928;14.480;2022-10-14T05:52:46;12.48;;;6.05;;
63688;SDS011;54895;40.928;14.480;2022-10-14T05:55:37;12.30;;;6.95;;
63688;SDS011;54895;40.928;14.480;2022-10-14T05:58:18;10.27;;;6.72;;
63688;SDS011;54895;40.928;14.480;2022-10-14T06:01:01;9.82;;;6.68;;
63688;SDS011;54895;40.928;14.480;2022-10-14T06:03:48;10.10;;;6.80;;
63688;SDS011;54895;40.928;14.480;2022-10-14T06:06:30;10.27;;;6.60;;
63688;SDS011;54895;40.928;14.480;2022-10-14T06:09:11;11.05;;;7.25;;
63688;SDS011;54895;40.928;14.480;2022-10-14T06:11:53;10.25;;;6.15;;
63688;SDS011;54895;40.928;14.480;2022-10-14T06:14:37;8.48;;;5.75;;
63688;SDS011;54895;40.928;14.480;2022-10-14T06:17:19;7.97;;;5.18;;
63688;SDS011;54895;40.928;14.480;2022-10-14T06:20:00;9.05;;;6.07;;
63688;SDS011;54895;40.928;14.480;2022-10-14T06:22:55;8.18;;;6.20;;
63688;SDS011;54895;40.928;14.480;2022-10-14T06:25:39;12.05;;;6.80;;
63688;SDS011;54895;40.928;14.480;2022-10-14T06:28:20;7.55;;;4.35;;
63688;SDS011;54895;40.928;14.480;2022-10-14T06:31:02;10.07;;;6.20;;
63688;SDS011;54895;40.928;14.480;2022-10-14T06:33:44;11.57;;;6.07;;
63688;SDS011;54895;40.928;14.480;2022-10-14T06:36:26;8.88;;;5.40;;
63688;SDS011;54895;40.928;14.480;2022-10-14T06:39:08;11.73;;;6.20;;
63688;SDS011;54895;40.928;14.480;2022-10-14T06:41:50;9.98;;;5.63;;
63688;SDS011;54895;40.928;14.480;2022-10-14T06:44:36;10.88;;;6.45;;
63688;SDS011;54895;40.928;14.480;2022-10-14T06:47:17;9.75;;;6.53;;
63688;SDS011;54895;40.928;14.480;2022-10-14T06:50:00;10.35;;;6.00;;
63688;SDS011;54895;40.928;14.480;2022-10-14T06:52:45;8.75;;;5.45;;
63688;SDS011;54895;40.928;14.480;2022-10-14T06:55:25;11.90;;;6.53;;
63688;SDS011;54895;40.928;14.480;2022-10-14T06:58:06;12.10;;;6.93;;
63688;SDS011;54895;40.928;14.480;2022-10-14T07:00:49;11.57;;;6.30;;
63688;SDS011;54895;40.928;14.480;2022-10-14T07:03:27;10.05;;;6.05;;
63688;SDS011;54895;40.928;14.480;2022-10-14T07:06:10;9.05;;;6.18;;
63688;SDS011;54895;40.928;14.480;2022-10-14T07:08:51;8.10;;;5.65;;
63688;SDS011;54895;40.928;14.480;2022-10-14T07:11:33;9.07;;;6.60;;
63688;SDS011;54895;40.928;14.480;2022-10-14T07:14:15;15.63;;;9.38;;
63688;SDS011;54895;40.928;14.480;2022-10-14T07:16:56;12.50;;;7.70;;
63688;SDS011;54895;40.928;14.480;2022-10-14T07:19:37;10.23;;;7.47;;
63688;SDS011;54895;40.928;14.480;2022-10-14T07:22:19;12.13;;;8.98;;
63688;SDS011;54895;40.928;14.480;2022-10-14T07:25:00;13.63;;;8.30;;
63688;SDS011;54895;40.928;14.480;2022-10-14T07:27:40;11.80;;;8.52;;
63688;SDS011;54895;40.928;14.480;2022-10-14T07:33:39;17.50;;;8.18;;
63688;SDS011;54895;40.928;14.480;2022-10-14T07:36:22;8.82;;;4.88;;
63688;SDS011;54895;40.928;14.480;2022-10-14T07:39:04;10.93;;;8.13;;
63688;SDS011;54895;40.928;14.480;2022-10-14T07:41:45;9.73;;;6.80;;
63688;SDS011;54895;40.928;14.480;2022-10-14T07:44:29;15.48;;;8.43;;
63688;SDS011;54895;40.928;14.480;2022-10-14T07:47:11;11.85;;;7.53;;
63688;SDS011;54895;40.928;14.480;2022-10-14T07:49:55;11.13;;;6.80;;
63688;SDS011;54895;40.928;14.480;2022-10-14T07:52:36;14.57;;;8.45;;
63688;SDS011;54895;40.928;14.480;2022-10-14T07:55:20;11.70;;;8.07;;
63688;SDS011;54895;40.928;14.480;2022-10-14T07:58:03;11.63;;;8.25;;
63688;SDS011;54895;40.928;14.480;2022-10-14T08:00:47;10.60;;;7.95;;
63688;SDS011;54895;40.928;14.480;2022-10-14T08:03:32;10.88;;;6.95;;
63688;SDS011;54895;40.928;14.480;2022-10-14T08:06:14;13.20;;;7.55;;
63688;SDS011;54895;40.928;14.480;2022-10-14T08:08:58;9.93;;;6.95;;
63688;SDS011;54895;40.928;14.480;2022-10-14T08:11:40;8.85;;;6.20;;
63688;SDS011;54895;40.928;14.480;2022-10-14T08:14:23;9.90;;;6.35;;
63688;SDS011;54895;40.928;14.480;2022-10-14T08:17:05;8.80;;;6.57;;
63688;SDS011;54895;40.928;14.480;2022-10-14T08:19:48;9.10;;;6.80;;
63688;SDS011;54895;40.928;14.480;2022-10-14T08:22:31;11.25;;;7.82;;
63688;SDS011;54895;40.928;14.480;2022-10-14T08:25:13;14.02;;;7.72;;
63688;SDS011;54895;40.928;14.480;2022-10-14T08:27:55;13.35;;;8.35;;
63688;SDS011;54895;40.928;14.480;2022-10-14T08:30:45;14.43;;;8.50;;
63688;SDS011;54895;40.928;14.480;2022-10-14T08:33:28;12.48;;;7.65;;
63688;SDS011;54895;40.928;14.480;2022-10-14T08:36:09;11.35;;;7.63;;
63688;SDS011;54895;40.928;14.480;2022-10-14T08:38:51;13.98;;;8.35;;
63688;SDS011;54895;40.928;14.480;2022-10-14T08:44:19;11.57;;;7.90;;
63688;SDS011;54895;40.928;14.480;2022-10-14T08:47:14;11.48;;;7.47;;
63688;SDS011;54895;40.928;14.480;2022-10-14T08:50:01;14.48;;;7.88;;
63688;SDS011;54895;40.928;14.480;2022-10-14T08:52:54;9.32;;;6.88;;
63688;SDS011;54895;40.928;14.480;2022-10-14T08:55:48;11.32;;;7.20;;
63688;SDS011;54895;40.928;14.480;2022-10-14T08:58:40;11.65;;;6.82;;
63688;SDS011;54895;40.928;14.480;2022-10-14T09:04:11;10.95;;;6.60;;
63688;SDS011;54895;40.928;14.480;2022-10-14T09:06:55;10.20;;;6.68;;
63688;SDS011;54895;40.928;14.480;2022-10-14T09:09:44;8.48;;;6.78;;
63688;SDS011;54895;40.928;14.480;2022-10-14T09:12:49;9.75;;;7.20;;
63688;SDS011;54895;40.928;14.480;2022-10-14T09:15:37;10.05;;;6.70;;
63688;SDS011;54895;40.928;14.480;2022-10-14T09:18:23;11.20;;;6.85;;
63688;SDS011;54895;40.928;14.480;2022-10-14T09:24:15;9.73;;;7.47;;
63688;SDS011;54895;40.928;14.480;2022-10-14T09:27:03;10.25;;;6.78;;
63688;SDS011;54895;40.928;14.480;2022-10-14T09:30:03;11.93;;;5.97;;
63688;SDS011;54895;40.928;14.480;2022-10-14T09:32:51;9.23;;;6.45;;
63688;SDS011;54895;40.928;14.480;2022-10-14T09:35:41;11.20;;;6.40;;
63688;SDS011;54895;40.928;14.480;2022-10-14T09:38:30;11.00;;;5.95;;
63688;SDS011;54895;40.928;14.480;2022-10-14T09:41:14;8.30;;;5.40;;
63688;SDS011;54895;40.928;14.480;2022-10-14T09:47:06;9.02;;;6.40;;
63688;SDS011;54895;40.928;14.480;2022-10-14T09:49:53;7.63;;;5.88;;
63688;SDS011;54895;40.928;14.480;2022-10-14T09:52:36;10.18;;;5.72;;
63688;SDS011;54895;40.928;14.480;2022-10-14T09:55:19;8.45;;;6.32;;
63688;SDS011;54895;40.928;14.480;2022-10-14T09:58:05;9.05;;;6.18;;
63688;SDS011;54895;40.928;14.480;2022-10-14T10:00:56;10.88;;;6.50;;
63688;SDS011;54895;40.928;14.480;2022-10-14T10:03:39;9.68;;;5.95;;
63688;SDS011;54895;40.928;14.480;2022-10-14T10:06:23;9.10;;;6.20;;
63688;SDS011;54895;40.928;14.480;2022-10-14T10:09:17;8.43;;;5.60;;
63688;SDS011;54895;40.928;14.480;2022-10-14T10:12:20;11.45;;;6.03;;
63688;SDS011;54895;40.928;14.480;2022-10-14T10:15:05;9.68;;;6.00;;
63688;SDS011;54895;40.928;14.480;2022-10-14T10:17:49;8.50;;;6.50;;
63688;SDS011;54895;40.928;14.480;2022-10-14T10:20:34;9.05;;;6.28;;
63688;SDS011;54895;40.928;14.480;2022-10-14T10:23:22;8.27;;;5.95;;
63688;SDS011;54895;40.928;14.480;2022-10-14T10:26:17;12.27;;;6.68;;
63688;SDS011;54895;40.928;14.480;2022-10-14T10:33:40;11.98;;;6.72;;
63688;SDS011;54895;40.928;14.480;2022-10-14T10:36:29;8.98;;;6.05;;
63688;SDS011;54895;40.928;14.480;2022-10-14T10:42:25;9.45;;;6.38;;
63688;SDS011;54895;40.928;14.480;2022-10-14T10:48:14;9.65;;;6.40;;
63688;SDS011;54895;40.928;14.480;2022-10-14T10:51:08;8.57;;;6.78;;
63688;SDS011;54895;40.928;14.480;2022-10-14T10:56:47;9.68;;;6.10;;
63688;SDS011;54895;40.928;14.480;2022-10-14T11:08:50;8.50;;;5.97;;
63688;SDS011;54895;40.928;14.480;2022-10-14T11:12:06;8.35;;;5.78;;
63688;SDS011;54895;40.928;14.480;2022-10-14T11:33:32;6.65;;;5.55;;
63688;SDS011;54895;40.928;14.480;2022-10-14T11:47:37;8.02;;;5.45;;
63688;SDS011;54895;40.928;14.480;2022-10-14T11:50:31;7.30;;;5.57;;
63688;SDS011;54895;40.928;14.480;2022-10-14T11:53:42;8.07;;;6.40;;
63688;SDS011;54895;40.928;14.480;2022-10-14T11:56:56;8.20;;;6.10;;
63688;SDS011;54895;40.928;14.480;2022-10-14T12:15:55;8.82;;;6.38;;
63688;SDS011;54895;40.928;14.480;2022-10-14T12:29:03;9.80;;;6.32;;
63688;SDS011;54895;40.928;14.480;2022-10-14T12:35:16;8.60;;;5.80;;
63688;SDS011;54895;40.928;14.480;2022-10-14T12:38:24;8.82;;;6.25;;
63688;SDS011;54895;40.928;14.480;2022-10-14T12:44:18;7.20;;;5.43;;
63688;SDS011;54895;40.928;14.480;2022-10-14T12:47:01;9.63;;;5.95;;
63688;SDS011;54895;40.928;14.480;2022-10-14T12:49:45;8.65;;;5.80;;
63688;SDS011;54895;40.928;14.480;2022-10-14T12:52:39;7.22;;;5.68;;
63688;SDS011;54895;40.928;14.480;2022-10-14T12:55:26;7.85;;;5.85;;
63688;SDS011;54895;40.928;14.480;2022-10-14T12:58:11;8.43;;;5.85;;
63688;SDS011;54895;40.928;14.480;2022-10-14T13:01:03;8.80;;;6.25;;
63688;SDS011;54895;40.928;14.480;2022-10-14T13:03:51;8.57;;;6.38;;
63688;SDS011;54895;40.928;14.480;2022-10-14T13:06:40;8.57;;;6.72;;
63688;SDS011;54895;40.928;14.480;2022-10-14T13:09:31;7.53;;;6.05;;
63688;SDS011;54895;40.928;14.480;2022-10-14T13:15:04;7.43;;;5.93;;
63688;SDS011;54895;40.928;14.480;2022-10-14T13:21:28;10.05;;;6.13;;
63688;SDS011;54895;40.928;14.480;2022-10-14T13:30:44;8.23;;;5.80;;
63688;SDS011;54895;40.928;14.480;2022-10-14T13:33:51;9.10;;;6.10;;
63688;SDS011;54895;40.928;14.480;2022-10-14T13:36:43;8.02;;;5.22;;
63688;SDS011;54895;40.928;14.480;2022-10-14T13:39:38;9.23;;;6.13;;
63688;SDS011;54895;40.928;14.480;2022-10-14T13:42:23;8.52;;;5.60;;
63688;SDS011;54895;40.928;14.480;2022-10-14T13:45:12;9.18;;;5.82;;
63688;SDS011;54895;40.928;14.480;2022-10-14T13:47:53;9.45;;;5.95;;
63688;SDS011;54895;40.928;14.480;2022-10-14T13:50:36;9.88;;;5.70;;
63688;SDS011;54895;40.928;14.480;2022-10-14T13:53:22;8.82;;;5.50;;
63688;SDS011;54895;40.928;14.480;2022-10-14T13:56:02;7.45;;;5.70;;
63688;SDS011;54895;40.928;14.480;2022-10-14T13:58:44;8.07;;;6.00;;
63688;SDS011;54895;40.928;14.480;2022-10-14T14:01:29;8.13;;;5.63;;
63688;SDS011;54895;40.928;14.480;2022-10-14T14:04:21;9.77;;;5.22;;
63688;SDS011;54895;40.928;14.480;2022-10-14T14:07:06;8.80;;;5.50;;
63688;SDS011;54895;40.928;14.480;2022-10-14T14:10:02;7.22;;;5.20;;
63688;SDS011;54895;40.928;14.480;2022-10-14T14:12:46;6.80;;;5.38;;
63688;SDS011;54895;40.928;14.480;2022-10-14T14:15:29;7.97;;;5.78;;
63688;SDS011;54895;40.928;14.480;2022-10-14T14:21:27;7.32;;;5.40;;
63688;SDS011;54895;40.928;14.480;2022-10-14T14:24:22;6.43;;;4.97;;
63688;SDS011;54895;40.928;14.480;2022-10-14T14:27:08;6.22;;;4.95;;
63688;SDS011;54895;40.928;14.480;2022-10-14T14:29:55;8.82;;;5.70;;
63688;SDS011;54895;40.928;14.480;2022-10-14T14:32:36;8.32;;;4.90;;
63688;SDS011;54895;40.928;14.480;2022-10-14T14:35:18;6.43;;;5.03;;
63688;SDS011;54895;40.928;14.480;2022-10-14T14:37:59;8.15;;;5.80;;
63688;SDS011;54895;40.928;14.480;2022-10-14T14:40:43;7.15;;;5.50;;
63688;SDS011;54895;40.928;14.480;2022-10-14T14:43:26;8.13;;;5.65;;
63688;SDS011;54895;40.928;14.480;2022-10-14T14:46:16;7.82;;;5.72;;
63688;SDS011;54895;40.928;14.480;2022-10-14T14:49:01;8.90;;;5.90;;
63688;SDS011;54895;40.928;14.480;2022-10-14T14:51:44;7.82;;;5.70;;
63688;SDS011;54895;40.928;14.480;2022-10-14T14:54:25;6.55;;;5.32;;
63688;SDS011;54895;40.928;14.480;2022-10-14T14:57:08;6.10;;;5.30;;
63688;SDS011;54895;40.928;14.480;2022-10-14T14:59:52;8.10;;;5.53;;
63688;SDS011;54895;40.928;14.480;2022-10-14T15:02:40;8.65;;;5.00;;
63688;SDS011;54895;40.928;14.480;2022-10-14T15:05:21;7.15;;;4.80;;
63688;SDS011;54895;40.928;14.480;2022-10-14T15:08:02;7.63;;;5.10;;
63688;SDS011;54895;40.928;14.480;2022-10-14T15:10:47;6.90;;;4.93;;
63688;SDS011;54895;40.928;14.480;2022-10-14T15:16:36;7.95;;;4.75;;
63688;SDS011;54895;40.928;14.480;2022-10-14T15:19:25;6.50;;;4.88;;
63688;SDS011;54895;40.928;14.480;2022-10-14T15:25:10;6.70;;;4.72;;
63688;SDS011;54895;40.928;14.480;2022-10-14T15:28:03;7.30;;;4.53;;
63688;SDS011;54895;40.928;14.480;2022-10-14T15:33:24;7.45;;;5.18;;
63688;SDS011;54895;40.928;14.480;2022-10-14T15:36:08;7.80;;;5.70;;
63688;SDS011;54895;40.928;14.480;2022-10-14T15:38:54;10.60;;;5.38;;
63688;SDS011;54895;40.928;14.480;2022-10-14T15:41:40;7.47;;;4.80;;
63688;SDS011;54895;40.928;14.480;2022-10-14T15:44:21;7.55;;;5.35;;
63688;SDS011;54895;40.928;14.480;2022-10-14T15:47:01;7.40;;;5.38;;
63688;SDS011;54895;40.928;14.480;2022-10-14T15:50:03;7.50;;;5.18;;
63688;SDS011;54895;40.928;14.480;2022-10-14T15:52:47;8.45;;;5.47;;
63688;SDS011;54895;40.928;14.480;2022-10-14T15:55:30;7.47;;;5.55;;
63688;SDS011;54895;40.928;14.480;2022-10-14T15:58:16;7.13;;;4.82;;
63688;SDS011;54895;40.928;14.480;2022-10-14T16:01:00;7.65;;;5.43;;
63688;SDS011;54895;40.928;14.480;2022-10-14T16:03:44;7.03;;;4.88;;
63688;SDS011;54895;40.928;14.480;2022-10-14T16:06:27;7.97;;;5.70;;
63688;SDS011;54895;40.928;14.480;2022-10-14T16:09:13;12.02;;;7.88;;
63688;SDS011;54895;40.928;14.480;2022-10-14T16:11:55;11.05;;;7.40;;
63688;SDS011;54895;40.928;14.480;2022-10-14T16:14:38;7.55;;;6.05;;
63688;SDS011;54895;40.928;14.480;2022-10-14T16:17:18;8.43;;;6.20;;
63688;SDS011;54895;40.928;14.480;2022-10-14T16:20:01;6.85;;;5.70;;
63688;SDS011;54895;40.928;14.480;2022-10-14T16:22:42;7.78;;;5.90;;
63688;SDS011;54895;40.928;14.480;2022-10-14T16:25:24;8.18;;;5.93;;
63688;SDS011;54895;40.928;14.480;2022-10-14T16:28:11;9.48;;;6.15;;
63688;SDS011;54895;40.928;14.480;2022-10-14T16:30:52;10.45;;;6.25;;
63688;SDS011;54895;40.928;14.480;2022-10-14T16:33:33;9.40;;;6.22;;
63688;SDS011;54895;40.928;14.480;2022-10-14T16:36:16;10.85;;;7.43;;
63688;SDS011;54895;40.928;14.480;2022-10-14T16:39:00;13.30;;;8.40;;
63688;SDS011;54895;40.928;14.480;2022-10-14T16:41:42;12.68;;;7.82;;
63688;SDS011;54895;40.928;14.480;2022-10-14T16:44:25;13.00;;;9.20;;
63688;SDS011;54895;40.928;14.480;2022-10-14T16:47:07;13.07;;;8.57;;
63688;SDS011;54895;40.928;14.480;2022-10-14T16:49:59;11.77;;;8.27;;
63688;SDS011;54895;40.928;14.480;2022-10-14T16:52:40;9.98;;;7.70;;
63688;SDS011;54895;40.928;14.480;2022-10-14T16:55:40;9.43;;;6.88;;
63688;SDS011;54895;40.928;14.480;2022-10-14T16:58:36;10.63;;;7.25;;
63688;SDS011;54895;40.928;14.480;2022-10-14T17:01:17;12.23;;;7.85;;
63688;SDS011;54895;40.928;14.480;2022-10-14T17:03:59;13.50;;;7.88;;
63688;SDS011;54895;40.928;14.480;2022-10-14T17:06:41;12.88;;;8.00;;
63688;SDS011;54895;40.928;14.480;2022-10-14T17:09:22;12.80;;;8.18;;
63688;SDS011;54895;40.928;14.480;2022-10-14T17:12:03;15.00;;;8.38;;
63688;SDS011;54895;40.928;14.480;2022-10-14T17:14:45;11.20;;;7.78;;
63688;SDS011;54895;40.928;14.480;2022-10-14T17:17:25;15.02;;;8.07;;
63688;SDS011;54895;40.928;14.480;2022-10-14T17:20:07;12.70;;;7.80;;
63688;SDS011;54895;40.928;14.480;2022-10-14T17:22:48;11.55;;;8.23;;
63688;SDS011;54895;40.928;14.480;2022-10-14T17:25:30;12.45;;;9.10;;
63688;SDS011;54895;40.928;14.480;2022-10-14T17:28:11;10.82;;;8.07;;
63688;SDS011;54895;40.928;14.480;2022-10-14T17:30:52;13.23;;;8.95;;
63688;SDS011;54895;40.928;14.480;2022-10-14T17:33:33;11.25;;;8.43;;
63688;SDS011;54895;40.928;14.480;2022-10-14T17:36:18;13.63;;;9.32;;
63688;SDS011;54895;40.928;14.480;2022-10-14T17:39:00;11.57;;;8.90;;
63688;SDS011;54895;40.928;14.480;2022-10-14T17:41:41;12.68;;;9.25;;
63688;SDS011;54895;40.928;14.480;2022-10-14T17:44:21;14.82;;;9.20;;
63688;SDS011;54895;40.928;14.480;2022-10-14T17:47:02;14.50;;;9.45;;
63688;SDS011;54895;40.928;14.480;2022-10-14T17:49:45;13.30;;;9.40;;
63688;SDS011;54895;40.928;14.480;2022-10-14T17:52:26;14.05;;;9.65;;
63688;SDS011;54895;40.928;14.480;2022-10-14T17:55:10;14.20;;;10.05;;
63688;SDS011;54895;40.928;14.480;2022-10-14T17:57:50;15.98;;;10.13;;
63688;SDS011;54895;40.928;14.480;2022-10-14T18:00:31;16.95;;;10.88;;
63688;SDS011;54895;40.928;14.480;2022-10-14T18:03:12;12.85;;;9.35;;
63688;SDS011;54895;40.928;14.480;2022-10-14T18:05:53;14.40;;;9.70;;
63688;SDS011;54895;40.928;14.480;2022-10-14T18:08:34;15.20;;;9.95;;
63688;SDS011;54895;40.928;14.480;2022-10-14T18:11:17;15.15;;;10.38;;
63688;SDS011;54895;40.928;14.480;2022-10-14T18:13:59;15.65;;;10.27;;
63688;SDS011;54895;40.928;14.480;2022-10-14T18:16:43;18.88;;;11.15;;
63688;SDS011;54895;40.928;14.480;2022-10-14T18:19:25;13.90;;;10.05;;
63688;SDS011;54895;40.928;14.480;2022-10-14T18:22:06;13.25;;;9.90;;
63688;SDS011;54895;40.928;14.480;2022-10-14T18:24:48;16.00;;;10.55;;
63688;SDS011;54895;40.928;14.480;2022-10-14T18:27:29;20.17;;;10.88;;
63688;SDS011;54895;40.928;14.480;2022-10-14T18:30:11;14.30;;;9.35;;
63688;SDS011;54895;40.928;14.480;2022-10-14T18:32:53;15.60;;;9.98;;
63688;SDS011;54895;40.928;14.480;2022-10-14T18:35:36;16.05;;;9.98;;
63688;SDS011;54895;40.928;14.480;2022-10-14T18:38:17;15.20;;;10.45;;